34-menopause-symptoms.com alexa rank chart, 34-menopause-symptoms.com alexa rank daily changes

34-menopause-symptoms.com alexa rank chart, 34-menopause-symptoms.com alexa rank daily changes

34-menopause-symptoms.com
Actual rank:
252 439

RANK HISTORY

Date Rank Diff
2018/05/22 252 439 -652 309
2018/05/21 904 748 +662 914
2018/05/20 241 834 +80 909
2018/05/19 160 925 -22 950
2018/05/18 183 875 +28 354
2018/05/17 155 521 -8 631
2018/05/16 164 152 -65 205
2018/05/15 229 357 -171 399
2018/05/14 400 756 +59 800
2018/05/13 340 956 +150 485
2018/05/12 190 471 -51 943
2018/05/11 242 414 -264 087
2018/05/10 506 501 +224 645
2018/05/09 281 856 +16 465
2018/05/08 265 391 +14 937
2018/05/07 250 454 -17 142
2018/05/06 267 596 +22 479
2018/05/05 245 117 +130 098
2018/05/04 115 019 -54 423
2018/05/03 169 442 +34 299
2018/05/02 135 143 -50 331
2018/05/01 185 474 -97 566
2018/04/30 283 040 +86 013
2018/04/29 197 027 -65 153
2018/04/28 262 180 -31 273
2018/04/27 293 453 +159 038
2018/04/26 134 415 -211 965
2018/04/25 346 380 -227 468
2018/04/24 573 848 +280 395
2018/04/23 293 453 +72 401
2018/04/22 221 052 +57 198
2018/04/21 163 854 -57 650
2018/04/20 221 504 -412
2018/04/19 221 916 -40 216
2018/04/18 262 132 +7 907
2018/04/17 254 225 +35 343
2018/04/16 218 882 -43 694
2018/04/15 262 576 +52 677
2018/04/14 209 899 +44 174
2018/04/13 165 725 +33 528
2018/04/12 132 197 -131 168
2018/04/11 263 365 +7 166
2018/04/10 256 199 +126 185
2018/04/09 130 014 -31 314
2018/04/08 161 328 -76 738
2018/04/07 238 066 +86 881
2018/04/06 151 185 -256 139
2018/04/05 407 324 +198 423
2018/04/04 208 901 +140 210
2018/04/03 68 691 -262 292
2018/04/01 330 983 +136 690
2018/03/31 194 293 +4 876
2018/03/30 189 417 +19 258
2018/03/29 170 159 -17 236
2018/03/28 187 395 +27 816
2018/03/27 159 579 -42 363
2018/03/26 201 942 +28 514
2018/03/25 173 428 +83 365
2018/03/24 90 063 -149 713
2018/03/23 239 776

WIDGET FOR YOUR SITE

DOMAINS WITH THE NEAREST RANK

Domain Rank
xxxsex.men 252 434
kalkulator.com.hr 252 435
oodlestechnologies.com 252 436
cgap.org 252 437
finishyourthesis.com 252 438
34-menopause-symptoms.com 252 439
epomedicine.com 252 440
add.org 252 441
mywordsearch.com 252 442
scottlowe.org 252 443
spaceweathernews.com 252 444

DOMAINS WITH THE NEAREST RANK BY TLD .com

Domain Rank
expatgo.com 252 427
funnytuu.com 252 428
anekatempatwisata.com 252 432
oodlestechnologies.com 252 436
finishyourthesis.com 252 438
34-menopause-symptoms.com 252 439
epomedicine.com 252 440
mywordsearch.com 252 442
spaceweathernews.com 252 444
3dpornvilla.com 252 448
tech-hall.com 252 451